createdAt,value
2019-04-20T00:01:29.380Z,13.00
2019-04-20T00:04:01.034Z,12.60
2019-04-20T00:06:43.212Z,13.07
2019-04-20T00:09:15.388Z,13.10
2019-04-20T00:11:53.533Z,12.43
2019-04-20T00:14:25.680Z,11.50
2019-04-20T00:16:54.683Z,12.13
2019-04-20T00:19:35.384Z,11.70
2019-04-20T00:22:09.865Z,12.83
2019-04-20T00:25:07.029Z,13.35
2019-04-20T00:28:12.002Z,12.77
2019-04-20T00:30:46.629Z,11.77
2019-04-20T00:33:14.746Z,13.60
2019-04-20T00:35:37.996Z,12.50
2019-04-20T00:38:11.939Z,12.37
2019-04-20T00:40:49.526Z,13.40
2019-04-20T00:43:26.247Z,12.80
2019-04-20T00:46:01.969Z,12.70
2019-04-20T00:48:37.423Z,14.10
2019-04-20T00:51:23.912Z,13.50
2019-04-20T00:53:43.196Z,14.10
2019-04-20T00:56:11.965Z,12.57
2019-04-20T00:59:04.245Z,13.20
2019-04-20T01:01:36.203Z,13.50
2019-04-20T01:04:14.831Z,12.77
2019-04-20T01:06:50.084Z,12.90
2019-04-20T01:09:24.725Z,12.50
2019-04-20T01:11:56.885Z,14.25
2019-04-20T01:14:37.068Z,13.32
2019-04-20T01:17:11.797Z,12.73
2019-04-20T01:19:39.987Z,13.70
2019-04-20T01:22:19.761Z,13.00
2019-04-20T01:24:52.974Z,12.93
2019-04-20T01:27:39.800Z,12.10
2019-04-20T01:30:05.842Z,12.63
2019-04-20T01:32:49.208Z,13.85
2019-04-20T01:35:22.800Z,13.20
2019-04-20T01:37:57.428Z,13.10
2019-04-20T01:40:14.720Z,14.33
2019-04-20T01:42:51.150Z,13.00
2019-04-20T01:45:30.789Z,12.85
2019-04-20T01:48:01.273Z,13.00
2019-04-20T01:50:37.950Z,13.30
2019-04-20T01:53:16.466Z,13.60
2019-04-20T01:55:55.407Z,12.93
2019-04-20T01:58:47.219Z,12.83
2019-04-20T02:01:39.059Z,12.47
2019-04-20T02:04:39.037Z,14.00
2019-04-20T02:07:08.663Z,13.43
2019-04-20T02:09:48.525Z,13.47
2019-04-20T02:12:20.303Z,15.77
2019-04-20T02:14:55.486Z,13.77
2019-04-20T02:17:31.899Z,12.55
2019-04-20T02:20:19.839Z,13.87
2019-04-20T02:22:46.550Z,14.20
2019-04-20T02:25:05.836Z,14.80
2019-04-20T02:27:48.179Z,14.47
2019-04-20T02:30:53.870Z,14.40
2019-04-20T02:36:25.383Z,13.75
2019-04-20T02:41:53.365Z,14.10
2019-04-20T02:49:37.609Z,13.90
2019-04-20T02:54:40.347Z,14.57
2019-04-20T02:57:12.227Z,14.73
2019-04-20T03:02:06.315Z,15.57
2019-04-20T03:04:34.061Z,15.60
2019-04-20T03:07:09.244Z,14.10
2019-04-20T03:09:44.262Z,14.23
2019-04-20T03:12:23.723Z,13.07
2019-04-20T03:14:47.305Z,14.43
2019-04-20T03:17:32.630Z,13.80
2019-04-20T03:20:00.619Z,13.43
2019-04-20T03:23:05.500Z,12.77
2019-04-20T03:25:18.698Z,14.07
2019-04-20T03:28:01.271Z,14.40
2019-04-20T03:36:00.369Z,13.75
2019-04-20T03:38:16.951Z,13.30
2019-04-20T03:40:45.375Z,14.03
2019-04-20T03:43:07.659Z,15.20
2019-04-20T03:45:48.429Z,14.90
2019-04-20T03:48:34.571Z,13.97
2019-04-20T03:51:07.275Z,13.23
2019-04-20T03:53:39.309Z,12.47
2019-04-20T03:56:41.925Z,13.10
2019-04-20T03:59:33.232Z,12.00
2019-04-20T04:02:49.296Z,13.07
2019-04-20T04:05:13.554Z,12.77
2019-04-20T04:07:40.266Z,12.20
2019-04-20T04:10:20.689Z,12.50
2019-04-20T04:13:09.532Z,13.35
2019-04-20T04:15:48.749Z,12.97
2019-04-20T04:18:25.443Z,12.73
2019-04-20T04:20:59.428Z,12.70
2019-04-20T04:23:45.933Z,13.75
2019-04-20T04:26:17.305Z,12.47
2019-04-20T04:28:47.481Z,12.43
2019-04-20T04:31:28.056Z,13.93
2019-04-20T04:34:14.717Z,13.10
2019-04-20T04:36:35.880Z,13.70
2019-04-20T04:39:22.857Z,12.77
2019-04-20T04:41:42.335Z,13.00
2019-04-20T04:44:11.121Z,14.20
2019-04-20T04:46:33.867Z,13.90
2019-04-20T04:49:16.474Z,13.80
2019-04-20T04:51:50.401Z,13.73
2019-04-20T04:54:25.873Z,13.53
2019-04-20T04:56:48.389Z,12.88
2019-04-20T04:59:23.428Z,14.80
2019-04-20T05:01:58.076Z,12.87
2019-04-20T05:05:28.044Z,13.87
2019-04-20T05:07:52.100Z,12.87
2019-04-20T05:10:16.252Z,14.27
2019-04-20T05:12:50.160Z,12.97
2019-04-20T05:15:40.448Z,14.50
2019-04-20T05:18:17.248Z,14.40
2019-04-20T05:20:56.980Z,11.73
2019-04-20T05:23:41.430Z,13.50
2019-04-20T05:26:37.562Z,13.60
2019-04-20T05:28:59.022Z,11.97
2019-04-20T05:31:36.728Z,12.87
2019-04-20T05:34:26.043Z,12.17
2019-04-20T05:36:58.072Z,12.60
2019-04-20T05:39:32.907Z,11.97
2019-04-20T05:42:02.906Z,13.30
2019-04-20T05:44:46.030Z,11.85
2019-04-20T05:47:18.434Z,12.90
2019-04-20T05:49:50.133Z,14.70
2019-04-20T05:52:35.192Z,14.10
2019-04-20T05:55:03.181Z,14.33
2019-04-20T05:57:42.273Z,13.77
2019-04-20T06:00:15.898Z,14.90
2019-04-20T06:02:45.056Z,14.57
2019-04-20T06:05:22.347Z,14.77
2019-04-20T06:07:54.828Z,13.07
2019-04-20T06:10:32.062Z,13.63
2019-04-20T06:13:08.493Z,12.50
2019-04-20T06:16:07.348Z,13.57
2019-04-20T06:18:44.113Z,12.63
2019-04-20T06:21:35.480Z,14.27
2019-04-20T06:24:10.004Z,12.90
2019-04-20T06:26:55.111Z,14.43
2019-04-20T06:29:18.338Z,13.63
2019-04-20T06:32:05.162Z,14.20
2019-04-20T06:37:00.524Z,14.17
2019-04-20T06:42:29.020Z,13.32
2019-04-20T06:44:53.141Z,13.57
2019-04-20T06:47:24.481Z,13.77
2019-04-20T06:49:56.685Z,14.33
2019-04-20T06:52:37.428Z,14.03
2019-04-20T06:55:15.655Z,12.90
2019-04-20T06:57:54.701Z,12.43
2019-04-20T07:00:22.855Z,12.70
2019-04-20T07:03:05.702Z,12.30
2019-04-20T07:05:39.495Z,13.03
2019-04-20T07:08:36.049Z,13.40
2019-04-20T07:11:04.271Z,12.60
2019-04-20T07:13:17.803Z,13.57
2019-04-20T07:16:13.775Z,11.97
2019-04-20T07:19:24.158Z,12.97
2019-04-20T07:22:23.342Z,11.90
2019-04-20T07:24:48.760Z,12.77
2019-04-20T07:27:16.982Z,11.90
2019-04-20T07:29:51.999Z,12.73
2019-04-20T07:32:19.294Z,11.80
2019-04-20T07:34:56.705Z,12.13
2019-04-20T07:40:10.434Z,12.43
2019-04-20T07:42:46.768Z,11.47
2019-04-20T07:45:21.673Z,13.40
2019-04-20T07:50:18.894Z,13.10
2019-04-20T07:52:51.634Z,12.47
2019-04-20T07:55:49.553Z,12.20
2019-04-20T07:58:07.598Z,12.40
2019-04-20T08:00:56.555Z,12.20
2019-04-20T08:03:39.458Z,12.90
2019-04-20T08:06:01.105Z,13.03
2019-04-20T08:08:43.765Z,11.97
2019-04-20T08:11:21.127Z,11.57
2019-04-20T08:13:56.969Z,11.23
2019-04-20T08:16:44.002Z,11.70
2019-04-20T08:19:08.209Z,11.97
2019-04-20T08:21:45.021Z,12.07
2019-04-20T08:24:13.468Z,11.60
2019-04-20T08:26:40.193Z,12.00
2019-04-20T08:29:33.821Z,11.00
2019-04-20T08:32:51.603Z,10.63
2019-04-20T08:35:50.275Z,9.80
2019-04-20T12:53:22.471Z,4.57
2019-04-20T12:55:58.819Z,4.40
2019-04-20T12:58:32.535Z,4.00
2019-04-20T13:01:06.606Z,4.27
2019-04-20T13:03:41.575Z,3.87
2019-04-20T13:06:14.057Z,4.27
2019-04-20T13:08:53.432Z,3.47
2019-04-20T13:11:24.937Z,4.37
2019-04-20T13:14:34.718Z,4.30
2019-04-20T13:17:08.306Z,3.90
2019-04-20T13:19:41.532Z,4.10
2019-04-20T13:22:16.931Z,4.47
2019-04-20T13:24:49.347Z,3.10
2019-04-20T13:27:31.085Z,3.80
2019-04-20T13:30:25.912Z,3.37
2019-04-20T13:33:23.718Z,3.33
2019-04-20T13:36:01.641Z,4.03
2019-04-20T13:38:34.598Z,3.90
2019-04-20T13:41:06.790Z,4.00
2019-04-20T13:43:38.177Z,3.60
2019-04-20T13:46:13.170Z,4.07
2019-04-20T13:48:44.861Z,4.00
2019-04-20T13:51:18.956Z,3.37
2019-04-20T13:53:53.287Z,3.17
2019-04-20T13:56:28.066Z,4.03
2019-04-20T13:59:19.625Z,4.40
2019-04-20T14:02:01.327Z,3.77
2019-04-20T14:04:46.545Z,3.83
2019-04-20T14:07:20.338Z,3.47
2019-04-20T14:09:53.456Z,3.10
2019-04-20T14:12:32.423Z,3.43
2019-04-20T14:15:01.264Z,3.40
2019-04-20T14:17:35.100Z,4.37
2019-04-20T14:20:12.087Z,3.53
2019-04-20T14:22:41.147Z,3.80
2019-04-20T14:25:15.241Z,2.87
2019-04-20T14:27:55.287Z,3.10
2019-04-20T14:30:29.011Z,3.40
2019-04-20T14:33:02.999Z,3.90
2019-04-20T14:35:36.895Z,4.37
2019-04-20T14:38:12.960Z,3.70
2019-04-20T14:40:46.205Z,3.57
2019-04-20T14:43:19.233Z,3.23
2019-04-20T14:45:56.681Z,3.77
2019-04-20T14:48:29.101Z,4.20
2019-04-20T14:51:02.019Z,3.80
2019-04-20T14:53:35.607Z,3.47
2019-04-20T14:56:07.419Z,3.60
2019-04-20T14:58:47.231Z,3.57
2019-04-20T15:01:30.563Z,3.07
2019-04-20T15:04:09.305Z,2.90
2019-04-20T15:06:39.892Z,3.60
2019-04-20T15:09:14.696Z,2.97
2019-04-20T15:11:46.621Z,3.10
2019-04-20T15:14:20.734Z,3.00
2019-04-20T15:16:54.387Z,2.83
2019-04-20T15:19:50.045Z,3.00
2019-04-20T15:22:47.627Z,3.20
2019-04-20T15:25:19.202Z,3.13
2019-04-20T15:27:54.454Z,2.67
2019-04-20T15:30:27.059Z,3.60
2019-04-20T15:33:01.070Z,3.20
2019-04-20T15:35:34.741Z,3.23
2019-04-20T15:38:09.179Z,3.50
2019-04-20T15:40:41.488Z,4.53
2019-04-20T15:43:19.429Z,3.37
2019-04-20T15:45:52.092Z,3.50
2019-04-20T15:48:25.934Z,3.50
2019-04-20T15:50:59.238Z,3.67
2019-04-20T15:53:31.907Z,3.37
2019-04-20T15:56:14.442Z,3.30
2019-04-20T15:58:46.273Z,3.90
2019-04-20T16:01:20.709Z,2.97
2019-04-20T16:03:57.587Z,3.50
2019-04-20T16:06:31.576Z,3.10
2019-04-20T16:09:08.471Z,3.67
2019-04-20T16:11:41.397Z,3.60
2019-04-20T16:14:15.491Z,2.50
2019-04-20T16:16:48.624Z,3.23
2019-04-20T16:19:32.833Z,3.13
2019-04-20T16:21:54.377Z,2.37
2019-04-20T16:24:32.916Z,2.77
2019-04-20T16:27:21.296Z,3.13
2019-04-20T16:29:55.844Z,3.67
2019-04-20T16:32:30.427Z,3.20
2019-04-20T16:35:04.660Z,3.60
2019-04-20T16:37:36.608Z,3.33
2019-04-20T16:40:11.649Z,3.00
2019-04-20T16:42:44.315Z,3.20
2019-04-20T16:45:17.457Z,3.30
2019-04-20T16:47:50.557Z,3.40
2019-04-20T16:50:22.778Z,3.00
2019-04-20T16:52:54.980Z,3.17
2019-04-20T16:55:28.637Z,3.40
2019-04-20T16:58:01.777Z,3.50
2019-04-20T17:00:35.697Z,3.23
2019-04-20T17:03:11.079Z,3.20
2019-04-20T17:05:43.610Z,3.00
2019-04-20T17:08:16.846Z,3.30
2019-04-20T17:10:48.800Z,3.70
2019-04-20T17:13:32.966Z,3.00
2019-04-20T17:15:55.446Z,3.33
2019-04-20T17:18:29.467Z,3.73
2019-04-20T17:21:05.845Z,3.50
2019-04-20T17:23:35.230Z,4.17
2019-04-20T17:26:10.426Z,4.00
2019-04-20T17:29:10.617Z,4.70
2019-04-20T17:31:55.702Z,4.40
2019-04-20T17:34:45.597Z,4.17
2019-04-20T17:37:04.252Z,3.77
2019-04-20T17:39:53.974Z,3.50
2019-04-20T17:42:25.071Z,3.90
2019-04-20T17:44:52.966Z,4.00
2019-04-20T17:47:37.275Z,3.37
2019-04-20T17:50:11.619Z,3.30
2019-04-20T17:52:52.592Z,3.70
2019-04-20T17:55:17.602Z,3.90
2019-04-20T17:57:41.545Z,3.23
2019-04-20T18:00:24.169Z,3.43
2019-04-20T18:03:12.561Z,4.13
2019-04-20T18:05:58.562Z,3.80
2019-04-20T18:08:29.947Z,3.83
2019-04-20T18:10:57.269Z,4.70
2019-04-20T18:13:23.986Z,4.20
2019-04-20T18:16:17.016Z,3.80
2019-04-20T18:18:58.486Z,3.60
2019-04-20T18:21:38.388Z,3.70
2019-04-20T18:24:24.170Z,3.60
2019-04-20T18:27:05.594Z,3.40
2019-04-20T18:29:38.389Z,4.20
2019-04-20T18:32:07.552Z,4.33
2019-04-20T18:35:08.360Z,3.50
2019-04-20T18:37:39.734Z,4.20
2019-04-20T18:40:15.218Z,4.37
2019-04-20T18:42:57.179Z,4.37
2019-04-20T18:45:33.811Z,4.10
2019-04-20T18:48:12.978Z,5.10
2019-04-20T18:50:35.594Z,4.60
2019-04-20T18:53:03.506Z,4.63
2019-04-20T18:55:43.818Z,4.80
2019-04-20T18:58:11.362Z,4.73
2019-04-20T19:00:49.690Z,11.10
2019-04-20T19:03:28.990Z,4.63
2019-04-20T19:05:53.708Z,4.77
2019-04-20T19:08:33.897Z,4.90
2019-04-20T19:11:06.490Z,5.27
2019-04-20T19:13:47.486Z,5.10
2019-04-20T19:16:33.481Z,5.00
2019-04-20T19:19:17.930Z,4.57
2019-04-20T19:21:38.198Z,5.37
2019-04-20T19:24:13.280Z,4.90
2019-04-20T19:26:50.840Z,5.70
2019-04-20T19:29:26.450Z,4.73
2019-04-20T19:32:17.787Z,5.30
2019-04-20T19:34:46.409Z,4.90
2019-04-20T19:37:15.847Z,4.90
2019-04-20T19:39:57.141Z,4.53
2019-04-20T19:42:32.787Z,4.50
2019-04-20T19:45:08.848Z,5.47
2019-04-20T19:47:48.331Z,6.30
2019-04-20T19:50:31.356Z,4.77
2019-04-20T19:53:05.752Z,6.03
2019-04-20T19:55:28.131Z,6.70
2019-04-20T19:58:02.500Z,13.70
2019-04-20T20:00:50.560Z,21.00
2019-04-20T20:03:19.744Z,14.80
2019-04-20T20:05:54.786Z,11.93
2019-04-20T20:08:34.542Z,17.53
2019-04-20T20:11:04.668Z,11.23
2019-04-20T20:13:44.702Z,10.60
2019-04-20T20:16:23.516Z,9.93
2019-04-20T20:19:01.922Z,10.50
2019-04-20T20:21:40.561Z,10.97
2019-04-20T20:23:59.711Z,8.80
2019-04-20T20:26:36.984Z,9.30
2019-04-20T20:29:17.144Z,8.87
2019-04-20T20:32:02.039Z,8.97
2019-04-20T20:34:26.680Z,8.87
2019-04-20T20:36:54.670Z,7.17
2019-04-20T20:39:29.633Z,9.47
2019-04-20T20:42:15.149Z,8.40
2019-04-20T20:45:09.669Z,8.23
2019-04-20T20:47:49.037Z,8.57
2019-04-20T20:50:31.586Z,8.20
2019-04-20T20:52:57.770Z,9.60
2019-04-20T20:55:33.515Z,9.53
2019-04-20T20:58:01.837Z,8.57
2019-04-20T21:00:37.219Z,9.50
2019-04-20T21:03:06.038Z,9.47
2019-04-20T21:05:37.951Z,9.77
2019-04-20T21:08:11.423Z,9.43
2019-04-20T21:10:45.711Z,9.20
2019-04-20T21:13:19.089Z,10.43
2019-04-20T21:16:02.403Z,8.80
2019-04-20T21:18:47.500Z,9.10
2019-04-20T21:21:39.897Z,10.30
2019-04-20T21:24:28.772Z,9.07
2019-04-20T21:27:14.003Z,10.10
2019-04-20T21:29:56.028Z,10.37
2019-04-20T21:32:33.112Z,10.43
2019-04-20T21:35:10.516Z,8.47
2019-04-20T21:37:48.106Z,9.17
2019-04-20T21:40:27.964Z,8.50
2019-04-20T21:43:03.582Z,8.83
2019-04-20T21:45:48.504Z,8.23
2019-04-20T21:48:49.195Z,9.70
2019-04-20T21:51:19.167Z,8.33
2019-04-20T21:53:57.902Z,8.87
2019-04-20T21:56:33.568Z,10.00
2019-04-20T21:59:15.270Z,8.67
2019-04-20T22:01:46.424Z,9.17
2019-04-20T22:04:14.449Z,10.00
2019-04-20T22:06:47.727Z,9.47
2019-04-20T22:09:20.434Z,9.50
2019-04-20T22:12:02.315Z,9.30
2019-04-20T22:14:35.830Z,9.97
2019-04-20T22:17:15.112Z,8.33
2019-04-20T22:19:59.171Z,9.27
2019-04-20T22:22:39.774Z,11.57
2019-04-20T22:25:11.784Z,9.03
2019-04-20T22:27:34.975Z,10.23
2019-04-20T22:30:08.216Z,13.60
2019-04-20T22:32:44.169Z,17.60
2019-04-20T22:35:17.106Z,14.97
2019-04-20T22:38:06.577Z,14.57
2019-04-20T22:40:33.959Z,15.23
2019-04-20T22:43:08.410Z,23.10
2019-04-20T22:45:46.987Z,15.63
2019-04-20T22:48:16.313Z,12.60
2019-04-20T22:51:10.318Z,12.90
2019-04-20T22:53:36.506Z,12.50
2019-04-20T22:56:14.766Z,12.23
2019-04-20T22:58:43.460Z,11.43
2019-04-20T23:01:17.879Z,10.40
2019-04-20T23:03:41.294Z,8.40
2019-04-20T23:06:16.625Z,9.03
2019-04-20T23:08:56.389Z,8.90
2019-04-20T23:11:28.486Z,7.80
2019-04-20T23:14:00.450Z,8.83
2019-04-20T23:16:39.257Z,8.73
2019-04-20T23:19:05.369Z,8.43
2019-04-20T23:21:46.747Z,9.10
2019-04-20T23:24:16.289Z,8.70
2019-04-20T23:26:53.174Z,9.93
2019-04-20T23:29:34.000Z,11.70
2019-04-20T23:32:07.650Z,9.17
2019-04-20T23:34:39.149Z,8.07
2019-04-20T23:37:18.683Z,8.50
2019-04-20T23:39:48.828Z,9.03
2019-04-20T23:42:28.057Z,8.30
2019-04-20T23:45:26.942Z,8.30
2019-04-20T23:48:02.774Z,8.10
2019-04-20T23:50:48.925Z,8.60
2019-04-20T23:53:24.671Z,8.37
2019-04-20T23:55:41.426Z,8.33
2019-04-20T23:58:16.384Z,8.70
